Oceanus — WXAQ — position and weather

sailwx.info

Track history (hours):
 
Tides and Currents Weather Stations Pressure Air Temp Water Temp Dewpoint Dewpoint Depression Visibility Wind Speed Wind Dir Waves Ship Positions

Oceanographic research ship Oceanus (USA)

Detailed information on ship capabilities available from University of Delaware's Ocean Information Center and ARCUS's ALIAS (Arctic Logistics Information and Support) project.

Owner: Oregon State University, Newport, OR. More information available from US FCC via Universal Licensing System.

Last reported at 2019-Apr-12 01:00 UTC. Time now 2019-Apr-18 20:54 UTC.
Position N 41°48' W 124°54'.

Length 54 m; draft 6.5 m.

Type: Other ship. MMSI: 367977000.

Wind from 310 at 10 knots

Barometer 1022.0 mb
Air temperature 11.1 ° C
Visibility: greater than 2.2 NM
Dewpoint 10.1 ° C

Date/timePositionNaut miles runAvg speedWind from/ knotsBaromVisibWave heightAir tempDewpointWater temp
2019-Apr-12 01:00N 41°48' W 124°54'203 9.6 310 / 101022.0 2.2 11.110.1
2019-Apr-11 03:44N 38°31' W 123°46'2 6.8
2019-Apr-11 03:26N 38°30' W 123°44'3 7.0
2019-Apr-11 03:00N 38°28' W 123°42'4 7.1
2019-Apr-11 02:30N 38°25' W 123°38'3 6.9
2019-Apr-11 02:00N 38°22' W 123°35'3 6.8
2019-Apr-11 01:30N 38°20' W 123°33'3 6.9
2019-Apr-11 01:00N 38°17' W 123°30'3 6.8
2019-Apr-11 00:30N 38°15' W 123°27'3 6.5
2019-Apr-11 00:00N 38°13' W 123°24'3 6.6
2019-Apr-10 23:30N 38°10' W 123°21'3 6.6
2019-Apr-10 23:00N 38°08' W 123°18'3 7.0
2019-Apr-10 22:30N 38°05' W 123°15'4 7.3
2019-Apr-10 22:00N 38°02' W 123°13'4 7.3
2019-Apr-10 21:30N 37°59' W 123°09'4 8.0
2019-Apr-10 21:00N 37°57' W 123°05'4 8.3
2019-Apr-10 20:30N 37°55' W 123°01'4 8.6
2019-Apr-10 20:00N 37°53' W 122°56'5 9.2
2019-Apr-10 19:30N 37°51' W 122°51'5 9.7
2019-Apr-10 19:00N 37°48' W 122°45'611.5
2019-Apr-10 18:30N 37°46' W 122°39'612.4
2019-Apr-10 18:00N 37°48' W 122°31'611.9
2019-Apr-10 17:30N 37°49' W 122°24'5 9.1
2019-Apr-10 17:00N 37°48' W 122°19'1 2.2
2019-Apr-10 16:30N 37°47' W 122°17'0 0.0
2019-Apr-10 16:00N 37°47' W 122°17'0 0.0
2019-Apr-10 15:30N 37°47' W 122°17'0 0.0
2019-Apr-10 15:00N 37°47' W 122°17'0 0.0
2019-Apr-10 14:30N 37°47' W 122°17'0 0.0
2019-Apr-10 14:00N 37°47' W 122°17'0 0.0
2019-Apr-10 13:30N 37°47' W 122°17'0 0.0
2019-Apr-10 13:00N 37°47' W 122°17'0 0.0
2019-Apr-10 12:30N 37°47' W 122°17'0 0.0
2019-Apr-10 12:00N 37°47' W 122°17'0 0.0
2019-Apr-10 11:30N 37°47' W 122°17'0 0.0
2019-Apr-10 11:00N 37°47' W 122°17'0 0.0
2019-Apr-10 10:30N 37°47' W 122°17'0 0.0
2019-Apr-10 10:00N 37°47' W 122°17'0 0.0
2019-Apr-10 09:30N 37°47' W 122°17'0 0.0
2019-Apr-10 09:00N 37°47' W 122°17'0 0.0
2019-Apr-10 08:30N 37°47' W 122°17'0 0.0
2019-Apr-10 08:00N 37°47' W 122°17'0 0.0
2019-Apr-10 07:30N 37°47' W 122°17'0 0.0
2019-Apr-10 07:00N 37°47' W 122°17'0 0.0
2019-Apr-10 06:30N 37°47' W 122°17'0 0.0
2019-Apr-10 06:00N 37°47' W 122°17'0 0.0
2019-Apr-10 05:30N 37°47' W 122°17'0 0.0
2019-Apr-10 05:00N 37°47' W 122°17'0 0.0
2019-Apr-10 04:30N 37°47' W 122°17'0 0.0
2019-Apr-10 04:00N 37°47' W 122°17'0 0.1
2019-Apr-10 03:30N 37°47' W 122°17'0 0.1
2019-Apr-10 03:00N 37°47' W 122°17'0 0.0
2019-Apr-10 02:30N 37°47' W 122°17'0 0.0
2019-Apr-10 02:00N 37°47' W 122°17'0 0.0
2019-Apr-10 01:30N 37°47' W 122°17'0 0.0
2019-Apr-10 01:00N 37°47' W 122°17'0 0.0
2019-Apr-10 00:30N 37°47' W 122°17'0 0.0
2019-Apr-10 00:00N 37°47' W 122°17'0 0.1
2019-Apr-09 23:30N 37°47' W 122°17'0 0.1
2019-Apr-09 23:00N 37°47' W 122°17'0 0.0
2019-Apr-09 22:30N 37°47' W 122°17'0 0.0
2019-Apr-09 22:00N 37°47' W 122°17'0 0.0
2019-Apr-09 21:30N 37°47' W 122°17'0 0.0
2019-Apr-09 21:00N 37°47' W 122°17'0 0.1
2019-Apr-09 20:30N 37°47' W 122°17'0 0.1
2019-Apr-09 20:00N 37°47' W 122°17'0 0.0
2019-Apr-09 19:30N 37°47' W 122°17'0 0.0
2019-Apr-09 19:00N 37°47' W 122°17'0 0.0
2019-Apr-09 18:29N 37°47' W 122°17'0 0.0
2019-Apr-09 18:00N 37°47' W 122°17'0 0.0
2019-Apr-09 17:29N 37°47' W 122°17'0 0.0
2019-Apr-09 16:56N 37°47' W 122°17'0 0.0
2019-Apr-09 16:29N 37°47' W 122°17'0 0.0
2019-Apr-09 15:59N 37°47' W 122°17'0 0.1
2019-Apr-09 15:29N 37°47' W 122°17'0 0.0
2019-Apr-09 14:59N 37°47' W 122°17'0 0.1
2019-Apr-09 14:29N 37°47' W 122°17'0 0.1
2019-Apr-09 13:59N 37°47' W 122°17'0 0.1
2019-Apr-09 13:29N 37°47' W 122°17'0 0.0
2019-Apr-09 12:59N 37°47' W 122°17'0 0.0
2019-Apr-09 12:29N 37°47' W 122°17'0 0.1
2019-Apr-09 11:59N 37°47' W 122°17'0 0.1
2019-Apr-09 11:29N 37°47' W 122°17'0 0.0
2019-Apr-09 10:59N 37°47' W 122°17'0 0.1
2019-Apr-09 10:29N 37°47' W 122°17'0 0.1
2019-Apr-09 09:59N 37°47' W 122°17'0 0.0
2019-Apr-09 09:29N 37°47' W 122°17'0 0.0
2019-Apr-09 08:59N 37°47' W 122°17'0 0.0
2019-Apr-09 08:29N 37°47' W 122°17'0 0.0
2019-Apr-09 07:59N 37°47' W 122°17'0 0.0
2019-Apr-09 07:29N 37°47' W 122°17'0 0.0
2019-Apr-09 06:59N 37°47' W 122°17'0 0.0
2019-Apr-09 06:29N 37°47' W 122°17'0 0.0
2019-Apr-09 05:59N 37°47' W 122°17'0 0.0
2019-Apr-09 05:29N 37°47' W 122°17'0 0.0
2019-Apr-09 04:59N 37°47' W 122°17'0 0.0
2019-Apr-09 04:29N 37°47' W 122°17'0 0.0
2019-Apr-09 03:59N 37°47' W 122°17'0 0.0
2019-Apr-09 03:29N 37°47' W 122°17'0 0.0
2019-Apr-09 02:59N 37°47' W 122°17'0 0.0
2019-Apr-09 02:29N 37°47' W 122°17'0 0.0
2019-Apr-09 01:59N 37°47' W 122°17'0 0.0
2019-Apr-09 01:29N 37°47' W 122°17'0 0.0
2019-Apr-09 00:59N 37°47' W 122°17'0 0.1
2019-Apr-09 00:29N 37°47' W 122°17'0 0.1
2019-Apr-08 23:59N 37°47' W 122°17'0 0.0
2019-Apr-08 23:29N 37°47' W 122°17'0 0.0
2019-Apr-08 22:59N 37°47' W 122°17'0 0.0
2019-Apr-08 22:29N 37°47' W 122°17'0 0.0
2019-Apr-08 21:59N 37°47' W 122°17'0 0.0
2019-Apr-08 21:29N 37°47' W 122°17'0 0.1
2019-Apr-08 20:59N 37°47' W 122°17'0 0.1
2019-Apr-08 20:29N 37°47' W 122°17'0 0.0
2019-Apr-08 19:59N 37°47' W 122°17'0 0.0
2019-Apr-08 19:29N 37°47' W 122°17'0 0.0
2019-Apr-08 18:59N 37°47' W 122°17'0 0.0
2019-Apr-08 18:29N 37°47' W 122°17'0 0.0
2019-Apr-08 17:56N 37°47' W 122°17'0 0.0
2019-Apr-08 17:29N 37°47' W 122°17'0 0.0
2019-Apr-08 16:59N 37°47' W 122°17'0 0.0
2019-Apr-08 16:29N 37°47' W 122°17'0 0.0
2019-Apr-08 15:59N 37°47' W 122°17'0 0.0
2019-Apr-08 15:29N 37°47' W 122°17'0 0.0
2019-Apr-08 14:59N 37°47' W 122°17'0 0.1
2019-Apr-08 14:29N 37°47' W 122°17'0 0.0
2019-Apr-08 13:59N 37°47' W 122°17'0 0.1
2019-Apr-08 13:29N 37°47' W 122°17'0 0.1
2019-Apr-08 12:59N 37°47' W 122°17'0 0.1
2019-Apr-08 12:28N 37°47' W 122°17'0 0.0
2019-Apr-08 11:58N 37°47' W 122°17'0 0.0
2019-Apr-08 11:28N 37°47' W 122°17'0 0.0
2019-Apr-08 10:58N 37°47' W 122°17'0 0.0
2019-Apr-08 10:29N 37°47' W 122°17'0 0.0
2019-Apr-08 09:58N 37°47' W 122°17'0 0.1
2019-Apr-08 09:28N 37°47' W 122°17'0 0.1
2019-Apr-08 08:58N 37°47' W 122°17'0 0.0
2019-Apr-08 08:28N 37°47' W 122°17'0 0.0
2019-Apr-08 07:58N 37°47' W 122°17'0 0.0
2019-Apr-08 07:28N 37°47' W 122°17'0 0.0
2019-Apr-08 06:58N 37°47' W 122°17'0 0.0
2019-Apr-08 06:28N 37°47' W 122°17'0 0.0
2019-Apr-08 05:58N 37°47' W 122°17'0 0.0
2019-Apr-08 05:28N 37°47' W 122°17'0 0.0
2019-Apr-08 04:58N 37°47' W 122°17'0 0.0
2019-Apr-08 04:28N 37°47' W 122°17'0 0.0
2019-Apr-08 03:58N 37°47' W 122°17'0 0.1
2019-Apr-08 03:28N 37°47' W 122°17'0 0.0
2019-Apr-08 02:58N 37°47' W 122°17'0 0.1
2019-Apr-08 02:28N 37°47' W 122°17'0 0.0
2019-Apr-08 01:58N 37°47' W 122°17'0 0.0
2019-Apr-08 01:28N 37°47' W 122°17'0 0.1
2019-Apr-08 00:58N 37°47' W 122°17'2 3.7
2019-Apr-08 00:30N 37°48' W 122°20'5 9.6
2019-Apr-08 00:00N 37°49' W 122°25'1 1.4
2019-Apr-07 23:30N 37°50' W 122°25'3 5.8
2019-Apr-07 23:01N 37°48' W 122°22'4 7.1
2019-Apr-07 22:30N 37°47' W 122°17'0 0.0
2019-Apr-07 21:56N 37°47' W 122°17'0 0.0
2019-Apr-07 21:29N 37°47' W 122°17'0 0.0
2019-Apr-07 20:58N 37°47' W 122°17'0 0.0
2019-Apr-07 20:28N 37°47' W 122°17'0 0.0
2019-Apr-07 19:58N 37°47' W 122°17'0 0.0
2019-Apr-07 19:28N 37°47' W 122°17'0 0.0
2019-Apr-07 18:58N 37°47' W 122°17'0 0.0
2019-Apr-07 18:28N 37°47' W 122°17'0 0.0
2019-Apr-07 17:58N 37°47' W 122°17'0 0.0
2019-Apr-07 17:28N 37°47' W 122°17'0 0.0
2019-Apr-07 16:58N 37°47' W 122°17'0 0.0
2019-Apr-07 16:28N 37°47' W 122°17'0 0.0
2019-Apr-07 15:58N 37°47' W 122°17'0 0.0
2019-Apr-07 15:28N 37°47' W 122°17'0 0.0
2019-Apr-07 14:58N 37°47' W 122°17'0 0.0
2019-Apr-07 14:28N 37°47' W 122°17'0 0.1
2019-Apr-07 13:55N 37°47' W 122°17'0 0.1
2019-Apr-07 13:28N 37°47' W 122°17'0 0.0
2019-Apr-07 12:58N 37°47' W 122°17'0 0.0
2019-Apr-07 12:28N 37°47' W 122°17'0 0.0
2019-Apr-07 11:58N 37°47' W 122°17'0 0.1
2019-Apr-07 11:28N 37°47' W 122°17'0 0.1
2019-Apr-07 10:58N 37°47' W 122°17'0 0.0
2019-Apr-07 10:28N 37°47' W 122°17'0 0.1
2019-Apr-07 09:58N 37°47' W 122°17'0 0.1
2019-Apr-07 09:28N 37°47' W 122°17'0 0.1
2019-Apr-07 08:58N 37°47' W 122°17'0 0.1
2019-Apr-07 08:28N 37°47' W 122°17'0 0.0
2019-Apr-07 07:58N 37°47' W 122°17'0 0.0
2019-Apr-07 07:28N 37°47' W 122°17'0 0.0
2019-Apr-07 06:58N 37°47' W 122°17'0 0.0
2019-Apr-07 06:28N 37°47' W 122°17'0 0.0
2019-Apr-07 05:58N 37°47' W 122°17'0 0.0
2019-Apr-07 05:28N 37°47' W 122°17'0 0.0
2019-Apr-07 04:58N 37°47' W 122°17'0 0.1
2019-Apr-07 04:28N 37°47' W 122°17'0 0.1
2019-Apr-07 03:58N 37°47' W 122°17'0 0.0
2019-Apr-07 03:28N 37°47' W 122°17'0 0.0
2019-Apr-07 02:58N 37°47' W 122°17'0 0.1
2019-Apr-07 02:25N 37°47' W 122°17'0 0.1
2019-Apr-07 01:58N 37°47' W 122°17'0 0.0
2019-Apr-07 01:28N 37°47' W 122°17'0 0.0
2019-Apr-07 00:58N 37°47' W 122°17'0 0.0
2019-Apr-07 00:28N 37°47' W 122°17'0 0.0
2019-Apr-06 23:55N 37°47' W 122°17'0 0.0
2019-Apr-06 23:28N 37°47' W 122°17'0 0.0
2019-Apr-06 22:58N 37°47' W 122°17'0 0.0
2019-Apr-06 22:28N 37°47' W 122°17'0 0.0
2019-Apr-06 21:58N 37°47' W 122°17'0 0.1
2019-Apr-06 21:28N 37°47' W 122°17'0 0.1
2019-Apr-06 20:58N 37°47' W 122°17'0 0.0
2019-Apr-06 20:28N 37°47' W 122°17'0 0.0
2019-Apr-06 19:58N 37°47' W 122°17'0 0.0
2019-Apr-06 19:28N 37°47' W 122°17'0 0.0
2019-Apr-06 18:58N 37°47' W 122°17'0 0.0
2019-Apr-06 18:28N 37°47' W 122°17'0 0.0
2019-Apr-06 17:58N 37°47' W 122°17'  
Track history (hours):
 
Tides and Currents Weather Stations Pressure Air Temp Water Temp Dewpoint Dewpoint Depression Visibility Wind Speed Wind Dir Waves Ship Positions

Oceanographic research ship Oceanus (USA)

Detailed information on ship capabilities available from University of Delaware's Ocean Information Center and ARCUS's ALIAS (Arctic Logistics Information and Support) project.

Owner: Oregon State University, Newport, OR. More information available from US FCC via Universal Licensing System.

Last reported at 2019-Apr-12 01:00 UTC. Time now 2019-Apr-18 20:54 UTC.
Position N 41°48' W 124°54'.

Length 54 m; draft 6.5 m.

Type: Other ship. MMSI: 367977000.

Wind from 310 at 10 knots

Barometer 1022.0 mb
Air temperature 11.1 ° C
Visibility: greater than 2.2 NM
Dewpoint 10.1 ° C

Date/timePositionNaut miles runAvg speedWind from/ knotsBaromVisibWave heightAir tempDewpointWater temp
2019-Apr-12 01:00N 41°48' W 124°54'203 9.6 310 / 101022.0 2.2 11.110.1
2019-Apr-11 03:44N 38°31' W 123°46'2 6.8
2019-Apr-11 03:26N 38°30' W 123°44'3 7.0
2019-Apr-11 03:00N 38°28' W 123°42'4 7.1
2019-Apr-11 02:30N 38°25' W 123°38'3 6.9
2019-Apr-11 02:00N 38°22' W 123°35'3 6.8
2019-Apr-11 01:30N 38°20' W 123°33'3 6.9
2019-Apr-11 01:00N 38°17' W 123°30'3 6.8
2019-Apr-11 00:30N 38°15' W 123°27'3 6.5
2019-Apr-11 00:00N 38°13' W 123°24'3 6.6
2019-Apr-10 23:30N 38°10' W 123°21'3 6.6
2019-Apr-10 23:00N 38°08' W 123°18'3 7.0
2019-Apr-10 22:30N 38°05' W 123°15'4 7.3
2019-Apr-10 22:00N 38°02' W 123°13'4 7.3
2019-Apr-10 21:30N 37°59' W 123°09'4 8.0
2019-Apr-10 21:00N 37°57' W 123°05'4 8.3
2019-Apr-10 20:30N 37°55' W 123°01'4 8.6
2019-Apr-10 20:00N 37°53' W 122°56'5 9.2
2019-Apr-10 19:30N 37°51' W 122°51'5 9.7
2019-Apr-10 19:00N 37°48' W 122°45'611.5
2019-Apr-10 18:30N 37°46' W 122°39'612.4
2019-Apr-10 18:00N 37°48' W 122°31'611.9
2019-Apr-10 17:30N 37°49' W 122°24'5 9.1
2019-Apr-10 17:00N 37°48' W 122°19'1 2.2
2019-Apr-10 16:30N 37°47' W 122°17'0 0.0
2019-Apr-10 16:00N 37°47' W 122°17'0 0.0
2019-Apr-10 15:30N 37°47' W 122°17'0 0.0
2019-Apr-10 15:00N 37°47' W 122°17'0 0.0
2019-Apr-10 14:30N 37°47' W 122°17'0 0.0
2019-Apr-10 14:00N 37°47' W 122°17'0 0.0
2019-Apr-10 13:30N 37°47' W 122°17'0 0.0
2019-Apr-10 13:00N 37°47' W 122°17'0 0.0
2019-Apr-10 12:30N 37°47' W 122°17'0 0.0
2019-Apr-10 12:00N 37°47' W 122°17'0 0.0
2019-Apr-10 11:30N 37°47' W 122°17'0 0.0
2019-Apr-10 11:00N 37°47' W 122°17'0 0.0
2019-Apr-10 10:30N 37°47' W 122°17'0 0.0
2019-Apr-10 10:00N 37°47' W 122°17'0 0.0
2019-Apr-10 09:30N 37°47' W 122°17'0 0.0
2019-Apr-10 09:00N 37°47' W 122°17'0 0.0
2019-Apr-10 08:30N 37°47' W 122°17'0 0.0
2019-Apr-10 08:00N 37°47' W 122°17'0 0.0
2019-Apr-10 07:30N 37°47' W 122°17'0 0.0
2019-Apr-10 07:00N 37°47' W 122°17'0 0.0
2019-Apr-10 06:30N 37°47' W 122°17'0 0.0
2019-Apr-10 06:00N 37°47' W 122°17'0 0.0
2019-Apr-10 05:30N 37°47' W 122°17'0 0.0
2019-Apr-10 05:00N 37°47' W 122°17'0 0.0
2019-Apr-10 04:30N 37°47' W 122°17'0 0.0
2019-Apr-10 04:00N 37°47' W 122°17'0 0.1
2019-Apr-10 03:30N 37°47' W 122°17'0 0.1
2019-Apr-10 03:00N 37°47' W 122°17'0 0.0
2019-Apr-10 02:30N 37°47' W 122°17'0 0.0
2019-Apr-10 02:00N 37°47' W 122°17'0 0.0
2019-Apr-10 01:30N 37°47' W 122°17'0 0.0
2019-Apr-10 01:00N 37°47' W 122°17'0 0.0
2019-Apr-10 00:30N 37°47' W 122°17'0 0.0
2019-Apr-10 00:00N 37°47' W 122°17'0 0.1
2019-Apr-09 23:30N 37°47' W 122°17'0 0.1
2019-Apr-09 23:00N 37°47' W 122°17'0 0.0
2019-Apr-09 22:30N 37°47' W 122°17'0 0.0
2019-Apr-09 22:00N 37°47' W 122°17'0 0.0
2019-Apr-09 21:30N 37°47' W 122°17'0 0.0
2019-Apr-09 21:00N 37°47' W 122°17'0 0.1
2019-Apr-09 20:30N 37°47' W 122°17'0 0.1
2019-Apr-09 20:00N 37°47' W 122°17'0 0.0
2019-Apr-09 19:30N 37°47' W 122°17'0 0.0
2019-Apr-09 19:00N 37°47' W 122°17'0 0.0
2019-Apr-09 18:29N 37°47' W 122°17'0 0.0
2019-Apr-09 18:00N 37°47' W 122°17'0 0.0
2019-Apr-09 17:29N 37°47' W 122°17'0 0.0
2019-Apr-09 16:56N 37°47' W 122°17'0 0.0
2019-Apr-09 16:29N 37°47' W 122°17'0 0.0
2019-Apr-09 15:59N 37°47' W 122°17'0 0.1
2019-Apr-09 15:29N 37°47' W 122°17'0 0.0
2019-Apr-09 14:59N 37°47' W 122°17'0 0.1
2019-Apr-09 14:29N 37°47' W 122°17'0 0.1
2019-Apr-09 13:59N 37°47' W 122°17'0 0.1
2019-Apr-09 13:29N 37°47' W 122°17'0 0.0
2019-Apr-09 12:59N 37°47' W 122°17'0 0.0
2019-Apr-09 12:29N 37°47' W 122°17'0 0.1
2019-Apr-09 11:59N 37°47' W 122°17'0 0.1
2019-Apr-09 11:29N 37°47' W 122°17'0 0.0
2019-Apr-09 10:59N 37°47' W 122°17'0 0.1
2019-Apr-09 10:29N 37°47' W 122°17'0 0.1
2019-Apr-09 09:59N 37°47' W 122°17'0 0.0
2019-Apr-09 09:29N 37°47' W 122°17'0 0.0
2019-Apr-09 08:59N 37°47' W 122°17'0 0.0
2019-Apr-09 08:29N 37°47' W 122°17'0 0.0
2019-Apr-09 07:59N 37°47' W 122°17'0 0.0
2019-Apr-09 07:29N 37°47' W 122°17'0 0.0
2019-Apr-09 06:59N 37°47' W 122°17'0 0.0
2019-Apr-09 06:29N 37°47' W 122°17'0 0.0
2019-Apr-09 05:59N 37°47' W 122°17'0 0.0
2019-Apr-09 05:29N 37°47' W 122°17'0 0.0
2019-Apr-09 04:59N 37°47' W 122°17'0 0.0
2019-Apr-09 04:29N 37°47' W 122°17'0 0.0
2019-Apr-09 03:59N 37°47' W 122°17'0 0.0
2019-Apr-09 03:29N 37°47' W 122°17'0 0.0
2019-Apr-09 02:59N 37°47' W 122°17'0 0.0
2019-Apr-09 02:29N 37°47' W 122°17'0 0.0
2019-Apr-09 01:59N 37°47' W 122°17'0 0.0
2019-Apr-09 01:29N 37°47' W 122°17'0 0.0
2019-Apr-09 00:59N 37°47' W 122°17'0 0.1
2019-Apr-09 00:29N 37°47' W 122°17'0 0.1
2019-Apr-08 23:59N 37°47' W 122°17'0 0.0
2019-Apr-08 23:29N 37°47' W 122°17'0 0.0
2019-Apr-08 22:59N 37°47' W 122°17'0 0.0
2019-Apr-08 22:29N 37°47' W 122°17'0 0.0
2019-Apr-08 21:59N 37°47' W 122°17'0 0.0
2019-Apr-08 21:29N 37°47' W 122°17'0 0.1
2019-Apr-08 20:59N 37°47' W 122°17'0 0.1
2019-Apr-08 20:29N 37°47' W 122°17'0 0.0
2019-Apr-08 19:59N 37°47' W 122°17'0 0.0
2019-Apr-08 19:29N 37°47' W 122°17'0 0.0
2019-Apr-08 18:59N 37°47' W 122°17'0 0.0
2019-Apr-08 18:29N 37°47' W 122°17'0 0.0
2019-Apr-08 17:56N 37°47' W 122°17'0 0.0
2019-Apr-08 17:29N 37°47' W 122°17'0 0.0
2019-Apr-08 16:59N 37°47' W 122°17'0 0.0
2019-Apr-08 16:29N 37°47' W 122°17'0 0.0
2019-Apr-08 15:59N 37°47' W 122°17'0 0.0
2019-Apr-08 15:29N 37°47' W 122°17'0 0.0
2019-Apr-08 14:59N 37°47' W 122°17'0 0.1
2019-Apr-08 14:29N 37°47' W 122°17'0 0.0
2019-Apr-08 13:59N 37°47' W 122°17'0 0.1
2019-Apr-08 13:29N 37°47' W 122°17'0 0.1
2019-Apr-08 12:59N 37°47' W 122°17'0 0.1
2019-Apr-08 12:28N 37°47' W 122°17'0 0.0
2019-Apr-08 11:58N 37°47' W 122°17'0 0.0
2019-Apr-08 11:28N 37°47' W 122°17'0 0.0
2019-Apr-08 10:58N 37°47' W 122°17'0 0.0
2019-Apr-08 10:29N 37°47' W 122°17'0 0.0
2019-Apr-08 09:58N 37°47' W 122°17'0 0.1
2019-Apr-08 09:28N 37°47' W 122°17'0 0.1
2019-Apr-08 08:58N 37°47' W 122°17'0 0.0
2019-Apr-08 08:28N 37°47' W 122°17'0 0.0
2019-Apr-08 07:58N 37°47' W 122°17'0 0.0
2019-Apr-08 07:28N 37°47' W 122°17'0 0.0
2019-Apr-08 06:58N 37°47' W 122°17'0 0.0
2019-Apr-08 06:28N 37°47' W 122°17'0 0.0
2019-Apr-08 05:58N 37°47' W 122°17'0 0.0
2019-Apr-08 05:28N 37°47' W 122°17'0 0.0
2019-Apr-08 04:58N 37°47' W 122°17'0 0.0
2019-Apr-08 04:28N 37°47' W 122°17'0 0.0
2019-Apr-08 03:58N 37°47' W 122°17'0 0.1
2019-Apr-08 03:28N 37°47' W 122°17'0 0.0
2019-Apr-08 02:58N 37°47' W 122°17'0 0.1
2019-Apr-08 02:28N 37°47' W 122°17'0 0.0
2019-Apr-08 01:58N 37°47' W 122°17'0 0.0
2019-Apr-08 01:28N 37°47' W 122°17'0 0.1
2019-Apr-08 00:58N 37°47' W 122°17'2 3.7
2019-Apr-08 00:30N 37°48' W 122°20'5 9.6
2019-Apr-08 00:00N 37°49' W 122°25'1 1.4
2019-Apr-07 23:30N 37°50' W 122°25'3 5.8
2019-Apr-07 23:01N 37°48' W 122°22'4 7.1
2019-Apr-07 22:30N 37°47' W 122°17'0 0.0
2019-Apr-07 21:56N 37°47' W 122°17'0 0.0
2019-Apr-07 21:29N 37°47' W 122°17'0 0.0
2019-Apr-07 20:58N 37°47' W 122°17'0 0.0
2019-Apr-07 20:28N 37°47' W 122°17'0 0.0
2019-Apr-07 19:58N 37°47' W 122°17'0 0.0
2019-Apr-07 19:28N 37°47' W 122°17'0 0.0
2019-Apr-07 18:58N 37°47' W 122°17'0 0.0
2019-Apr-07 18:28N 37°47' W 122°17'0 0.0
2019-Apr-07 17:58N 37°47' W 122°17'0 0.0
2019-Apr-07 17:28N 37°47' W 122°17'0 0.0
2019-Apr-07 16:58N 37°47' W 122°17'0 0.0
2019-Apr-07 16:28N 37°47' W 122°17'0 0.0
2019-Apr-07 15:58N 37°47' W 122°17'0 0.0
2019-Apr-07 15:28N 37°47' W 122°17'0 0.0
2019-Apr-07 14:58N 37°47' W 122°17'0 0.0
2019-Apr-07 14:28N 37°47' W 122°17'0 0.1
2019-Apr-07 13:55N 37°47' W 122°17'0 0.1
2019-Apr-07 13:28N 37°47' W 122°17'0 0.0
2019-Apr-07 12:58N 37°47' W 122°17'0 0.0
2019-Apr-07 12:28N 37°47' W 122°17'0 0.0
2019-Apr-07 11:58N 37°47' W 122°17'0 0.1
2019-Apr-07 11:28N 37°47' W 122°17'0 0.1
2019-Apr-07 10:58N 37°47' W 122°17'0 0.0
2019-Apr-07 10:28N 37°47' W 122°17'0 0.1
2019-Apr-07 09:58N 37°47' W 122°17'0 0.1
2019-Apr-07 09:28N 37°47' W 122°17'0 0.1
2019-Apr-07 08:58N 37°47' W 122°17'0 0.1
2019-Apr-07 08:28N 37°47' W 122°17'0 0.0
2019-Apr-07 07:58N 37°47' W 122°17'0 0.0
2019-Apr-07 07:28N 37°47' W 122°17'0 0.0
2019-Apr-07 06:58N 37°47' W 122°17'0 0.0
2019-Apr-07 06:28N 37°47' W 122°17'0 0.0
2019-Apr-07 05:58N 37°47' W 122°17'0 0.0
2019-Apr-07 05:28N 37°47' W 122°17'0 0.0
2019-Apr-07 04:58N 37°47' W 122°17'0 0.1
2019-Apr-07 04:28N 37°47' W 122°17'0 0.1
2019-Apr-07 03:58N 37°47' W 122°17'0 0.0
2019-Apr-07 03:28N 37°47' W 122°17'0 0.0
2019-Apr-07 02:58N 37°47' W 122°17'0 0.1
2019-Apr-07 02:25N 37°47' W 122°17'0 0.1
2019-Apr-07 01:58N 37°47' W 122°17'0 0.0
2019-Apr-07 01:28N 37°47' W 122°17'0 0.0
2019-Apr-07 00:58N 37°47' W 122°17'0 0.0
2019-Apr-07 00:28N 37°47' W 122°17'0 0.0
2019-Apr-06 23:55N 37°47' W 122°17'0 0.0
2019-Apr-06 23:28N 37°47' W 122°17'0 0.0
2019-Apr-06 22:58N 37°47' W 122°17'0 0.0
2019-Apr-06 22:28N 37°47' W 122°17'0 0.0
2019-Apr-06 21:58N 37°47' W 122°17'0 0.1
2019-Apr-06 21:28N 37°47' W 122°17'0 0.1
2019-Apr-06 20:58N 37°47' W 122°17'0 0.0
2019-Apr-06 20:28N 37°47' W 122°17'0 0.0
2019-Apr-06 19:58N 37°47' W 122°17'0 0.0
2019-Apr-06 19:28N 37°47' W 122°17'0 0.0
2019-Apr-06 18:58N 37°47' W 122°17'0 0.0
2019-Apr-06 18:28N 37°47' W 122°17'0 0.0
2019-Apr-06 17:58N 37°47' W 122°17'  

Dump ship's entire track history